sensor_id;sensor_type;location;lat;lon;timestamp;pressure;altitude;pressure_sealevel;temperature;humidity
16194;BME280;8204;53.582;10.080;2023-02-02T00:01:46;99727.34;;;6.68;100.00
16194;BME280;8204;53.582;10.080;2023-02-02T00:04:17;99740.31;;;6.60;100.00
16194;BME280;8204;53.582;10.080;2023-02-02T00:06:46;99690.09;;;6.68;100.00
16194;BME280;8204;53.582;10.080;2023-02-02T00:09:16;99666.00;;;6.66;100.00
16194;BME280;8204;53.582;10.080;2023-02-02T00:11:48;99683.38;;;6.65;100.00
16194;BME280;8204;53.582;10.080;2023-02-02T00:14:17;99662.91;;;6.62;100.00
16194;BME280;8204;53.582;10.080;2023-02-02T00:16:47;99650.22;;;6.67;100.00
16194;BME280;8204;53.582;10.080;2023-02-02T00:19:18;99662.56;;;6.65;100.00
16194;BME280;8204;53.582;10.080;2023-02-02T00:21:48;99675.09;;;6.70;100.00
16194;BME280;8204;53.582;10.080;2023-02-02T00:24:17;99689.25;;;6.67;100.00
16194;BME280;8204;53.582;10.080;2023-02-02T00:26:51;99709.44;;;6.73;100.00
16194;BME280;8204;53.582;10.080;2023-02-02T00:29:22;99727.03;;;6.71;100.00
16194;BME280;8204;53.582;10.080;2023-02-02T00:31:52;99724.59;;;6.78;100.00
16194;BME280;8204;53.582;10.080;2023-02-02T00:34:21;99735.81;;;6.78;100.00
16194;BME280;8204;53.582;10.080;2023-02-02T00:36:50;99745.25;;;6.79;100.00
16194;BME280;8204;53.582;10.080;2023-02-02T00:39:21;99749.19;;;6.83;100.00
16194;BME280;8204;53.582;10.080;2023-02-02T00:41:53;99767.41;;;6.83;100.00
16194;BME280;8204;53.582;10.080;2023-02-02T00:44:22;99756.66;;;6.86;100.00
16194;BME280;8204;53.582;10.080;2023-02-02T00:47:03;99756.34;;;6.89;100.00
16194;BME280;8204;53.582;10.080;2023-02-02T00:49:32;99785.16;;;6.88;100.00
16194;BME280;8204;53.582;10.080;2023-02-02T00:52:01;99800.63;;;6.89;100.00
16194;BME280;8204;53.582;10.080;2023-02-02T00:54:30;99789.03;;;6.84;100.00
16194;BME280;8204;53.582;10.080;2023-02-02T00:57:02;99817.22;;;6.88;100.00
16194;BME280;8204;53.582;10.080;2023-02-02T00:59:31;99795.75;;;6.94;100.00
16194;BME280;8204;53.582;10.080;2023-02-02T01:02:00;99819.34;;;6.93;100.00
16194;BME280;8204;53.582;10.080;2023-02-02T01:04:29;99813.94;;;6.86;100.00
16194;BME280;8204;53.582;10.080;2023-02-02T01:06:58;99814.94;;;6.93;100.00
16194;BME280;8204;53.582;10.080;2023-02-02T01:09:27;99828.94;;;6.84;100.00
16194;BME280;8204;53.582;10.080;2023-02-02T01:11:56;99822.72;;;6.85;100.00
16194;BME280;8204;53.582;10.080;2023-02-02T01:14:28;99803.06;;;6.91;100.00
16194;BME280;8204;53.582;10.080;2023-02-02T01:16:59;99808.09;;;6.92;100.00
16194;BME280;8204;53.582;10.080;2023-02-02T01:19:28;99814.28;;;6.91;100.00
16194;BME280;8204;53.582;10.080;2023-02-02T01:21:57;99826.00;;;6.87;100.00
16194;BME280;8204;53.582;10.080;2023-02-02T01:24:26;99819.78;;;6.80;100.00
16194;BME280;8204;53.582;10.080;2023-02-02T01:26:55;99804.63;;;6.68;100.00
16194;BME280;8204;53.582;10.080;2023-02-02T01:29:24;99758.72;;;6.75;100.00
16194;BME280;8204;53.582;10.080;2023-02-02T01:31:55;99760.88;;;6.79;100.00
16194;BME280;8204;53.582;10.080;2023-02-02T01:34:24;99761.03;;;6.78;100.00
16194;BME280;8204;53.582;10.080;2023-02-02T01:36:53;99789.97;;;6.75;100.00
16194;BME280;8204;53.582;10.080;2023-02-02T01:39:21;99799.28;;;6.77;100.00
16194;BME280;8204;53.582;10.080;2023-02-02T01:41:50;99803.00;;;6.75;100.00
16194;BME280;8204;53.582;10.080;2023-02-02T01:47:36;99764.75;;;6.67;100.00
16194;BME280;8204;53.582;10.080;2023-02-02T01:50:08;99749.75;;;6.61;100.00
16194;BME280;8204;53.582;10.080;2023-02-02T01:52:39;99734.81;;;6.63;100.00
16194;BME280;8204;53.582;10.080;2023-02-02T01:55:10;99718.06;;;6.66;100.00
16194;BME280;8204;53.582;10.080;2023-02-02T01:57:42;99722.72;;;6.54;100.00
16194;BME280;8204;53.582;10.080;2023-02-02T02:00:14;99713.00;;;6.56;100.00
16194;BME280;8204;53.582;10.080;2023-02-02T02:02:47;99728.13;;;6.61;100.00
16194;BME280;8204;53.582;10.080;2023-02-02T02:05:24;99759.19;;;6.62;100.00
16194;BME280;8204;53.582;10.080;2023-02-02T02:07:57;99789.09;;;6.58;100.00
16194;BME280;8204;53.582;10.080;2023-02-02T02:10:28;99806.16;;;6.53;100.00
16194;BME280;8204;53.582;10.080;2023-02-02T02:12:57;99834.97;;;6.59;100.00
16194;BME280;8204;53.582;10.080;2023-02-02T02:15:29;99831.25;;;6.62;100.00
16194;BME280;8204;53.582;10.080;2023-02-02T02:18:26;99847.06;;;6.68;100.00
16194;BME280;8204;53.582;10.080;2023-02-02T02:21:14;99858.78;;;6.72;100.00
16194;BME280;8204;53.582;10.080;2023-02-02T02:27:37;99922.84;;;6.65;100.00
16194;BME280;8204;53.582;10.080;2023-02-02T02:30:42;99915.88;;;6.66;100.00
16194;BME280;8204;53.582;10.080;2023-02-02T02:33:23;99911.28;;;6.60;100.00
16194;BME280;8204;53.582;10.080;2023-02-02T02:36:02;99905.25;;;6.59;100.00
16194;BME280;8204;53.582;10.080;2023-02-02T02:38:36;99894.31;;;6.56;100.00
16194;BME280;8204;53.582;10.080;2023-02-02T02:41:12;99883.28;;;6.54;100.00
16194;BME280;8204;53.582;10.080;2023-02-02T02:43:47;99877.91;;;6.55;100.00
16194;BME280;8204;53.582;10.080;2023-02-02T02:46:18;99872.53;;;6.57;100.00
16194;BME280;8204;53.582;10.080;2023-02-02T02:48:50;99887.00;;;6.52;100.00
16194;BME280;8204;53.582;10.080;2023-02-02T02:51:42;99879.03;;;6.53;100.00
16194;BME280;8204;53.582;10.080;2023-02-02T02:54:12;99886.69;;;6.54;100.00
16194;BME280;8204;53.582;10.080;2023-02-02T02:57:10;99893.00;;;6.52;100.00
16194;BME280;8204;53.582;10.080;2023-02-02T02:59:50;99904.28;;;6.60;100.00
16194;BME280;8204;53.582;10.080;2023-02-02T03:02:30;99913.72;;;6.61;100.00
16194;BME280;8204;53.582;10.080;2023-02-02T03:05:13;99915.66;;;6.59;100.00
16194;BME280;8204;53.582;10.080;2023-02-02T03:07:48;99922.22;;;6.63;100.00
16194;BME280;8204;53.582;10.080;2023-02-02T03:10:21;99914.59;;;6.70;100.00
16194;BME280;8204;53.582;10.080;2023-02-02T03:12:53;99933.25;;;6.65;100.00
16194;BME280;8204;53.582;10.080;2023-02-02T03:15:24;99937.81;;;6.63;100.00
16194;BME280;8204;53.582;10.080;2023-02-02T03:17:53;99950.50;;;6.66;100.00
16194;BME280;8204;53.582;10.080;2023-02-02T03:20:24;99950.06;;;6.71;100.00
16194;BME280;8204;53.582;10.080;2023-02-02T03:22:54;99936.25;;;6.78;100.00
16194;BME280;8204;53.582;10.080;2023-02-02T03:25:23;99943.94;;;6.80;100.00
16194;BME280;8204;53.582;10.080;2023-02-02T03:27:52;99939.09;;;6.85;100.00
16194;BME280;8204;53.582;10.080;2023-02-02T03:30:21;99946.16;;;6.75;100.00
16194;BME280;8204;53.582;10.080;2023-02-02T03:32:50;99956.78;;;6.81;100.00
16194;BME280;8204;53.582;10.080;2023-02-02T03:35:19;99950.56;;;6.74;100.00
16194;BME280;8204;53.582;10.080;2023-02-02T03:37:51;99947.00;;;6.75;100.00
16194;BME280;8204;53.582;10.080;2023-02-02T03:40:20;99937.88;;;6.71;100.00
16194;BME280;8204;53.582;10.080;2023-02-02T03:42:49;99949.91;;;6.72;100.00
16194;BME280;8204;53.582;10.080;2023-02-02T03:45:18;99945.97;;;6.68;100.00
16194;BME280;8204;53.582;10.080;2023-02-02T03:47:47;99937.56;;;6.74;100.00
16194;BME280;8204;53.582;10.080;2023-02-02T03:50:16;99949.16;;;6.80;100.00
16194;BME280;8204;53.582;10.080;2023-02-02T03:52:45;99966.19;;;6.74;100.00
16194;BME280;8204;53.582;10.080;2023-02-02T03:55:17;99980.16;;;6.73;100.00
16194;BME280;8204;53.582;10.080;2023-02-02T03:57:45;99964.03;;;6.70;100.00
16194;BME280;8204;53.582;10.080;2023-02-02T04:00:15;99996.41;;;6.67;100.00
16194;BME280;8204;53.582;10.080;2023-02-02T04:02:43;99983.22;;;6.69;100.00
16194;BME280;8204;53.582;10.080;2023-02-02T04:05:12;99996.91;;;6.71;100.00
16194;BME280;8204;53.582;10.080;2023-02-02T04:07:41;100008.97;;;6.72;100.00
16194;BME280;8204;53.582;10.080;2023-02-02T04:10:10;100015.97;;;6.71;100.00
16194;BME280;8204;53.582;10.080;2023-02-02T04:12:41;100056.09;;;6.69;100.00
16194;BME280;8204;53.582;10.080;2023-02-02T04:15:10;100046.19;;;6.64;100.00
16194;BME280;8204;53.582;10.080;2023-02-02T04:17:39;100060.81;;;6.65;100.00
16194;BME280;8204;53.582;10.080;2023-02-02T04:20:10;100066.00;;;6.65;100.00
16194;BME280;8204;53.582;10.080;2023-02-02T04:22:38;100078.38;;;6.63;100.00
16194;BME280;8204;53.582;10.080;2023-02-02T04:25:07;100096.28;;;6.66;100.00
16194;BME280;8204;53.582;10.080;2023-02-02T04:27:36;100101.81;;;6.63;100.00
16194;BME280;8204;53.582;10.080;2023-02-02T04:30:09;100109.59;;;6.63;100.00
16194;BME280;8204;53.582;10.080;2023-02-02T04:32:38;100108.56;;;6.56;100.00
16194;BME280;8204;53.582;10.080;2023-02-02T04:35:07;100076.72;;;6.62;100.00
16194;BME280;8204;53.582;10.080;2023-02-02T04:37:36;100092.00;;;6.57;100.00
16194;BME280;8204;53.582;10.080;2023-02-02T04:40:07;100107.88;;;6.54;100.00
16194;BME280;8204;53.582;10.080;2023-02-02T04:42:35;100088.38;;;6.58;100.00
16194;BME280;8204;53.582;10.080;2023-02-02T04:45:08;100071.81;;;6.59;100.00
16194;BME280;8204;53.582;10.080;2023-02-02T04:47:37;100070.03;;;6.60;100.00
16194;BME280;8204;53.582;10.080;2023-02-02T04:50:07;100059.28;;;6.55;100.00
16194;BME280;8204;53.582;10.080;2023-02-02T04:52:36;100070.56;;;6.63;100.00
16194;BME280;8204;53.582;10.080;2023-02-02T04:55:06;100065.47;;;6.62;100.00
16194;BME280;8204;53.582;10.080;2023-02-02T04:57:35;100056.78;;;6.71;100.00
16194;BME280;8204;53.582;10.080;2023-02-02T05:00:05;100058.19;;;6.65;100.00
16194;BME280;8204;53.582;10.080;2023-02-02T05:02:39;100055.59;;;6.65;100.00
16194;BME280;8204;53.582;10.080;2023-02-02T05:05:11;100049.81;;;6.71;100.00
16194;BME280;8204;53.582;10.080;2023-02-02T05:07:40;100053.41;;;6.78;100.00
16194;BME280;8204;53.582;10.080;2023-02-02T05:10:10;100063.25;;;6.84;100.00
16194;BME280;8204;53.582;10.080;2023-02-02T05:12:39;100074.84;;;6.90;100.00
16194;BME280;8204;53.582;10.080;2023-02-02T05:15:09;100073.19;;;6.89;100.00
16194;BME280;8204;53.582;10.080;2023-02-02T05:17:41;100087.78;;;6.82;100.00
16194;BME280;8204;53.582;10.080;2023-02-02T05:20:11;100086.31;;;6.79;100.00
16194;BME280;8204;53.582;10.080;2023-02-02T05:22:39;100058.94;;;6.75;100.00
16194;BME280;8204;53.582;10.080;2023-02-02T05:25:09;100050.78;;;6.70;100.00
16194;BME280;8204;53.582;10.080;2023-02-02T05:27:38;100033.81;;;6.66;100.00
16194;BME280;8204;53.582;10.080;2023-02-02T05:30:09;100028.03;;;6.55;100.00
16194;BME280;8204;53.582;10.080;2023-02-02T05:32:41;100031.53;;;6.46;100.00
16194;BME280;8204;53.582;10.080;2023-02-02T05:35:09;100028.84;;;6.55;100.00
16194;BME280;8204;53.582;10.080;2023-02-02T05:37:39;100016.00;;;6.54;100.00
16194;BME280;8204;53.582;10.080;2023-02-02T05:40:10;100017.25;;;6.50;100.00
16194;BME280;8204;53.582;10.080;2023-02-02T05:42:39;100039.94;;;6.57;100.00
16194;BME280;8204;53.582;10.080;2023-02-02T05:45:09;100039.53;;;6.52;100.00
16194;BME280;8204;53.582;10.080;2023-02-02T05:47:41;100044.38;;;6.48;100.00
16194;BME280;8204;53.582;10.080;2023-02-02T05:50:10;100069.16;;;6.52;100.00
16194;BME280;8204;53.582;10.080;2023-02-02T05:52:39;100061.47;;;6.50;100.00
16194;BME280;8204;53.582;10.080;2023-02-02T05:55:09;100061.34;;;6.52;100.00
16194;BME280;8204;53.582;10.080;2023-02-02T05:57:38;100078.91;;;6.50;100.00
16194;BME280;8204;53.582;10.080;2023-02-02T06:00:09;100060.06;;;6.55;100.00
16194;BME280;8204;53.582;10.080;2023-02-02T06:02:41;100058.59;;;6.53;100.00
16194;BME280;8204;53.582;10.080;2023-02-02T06:05:10;100069.72;;;6.63;100.00
16194;BME280;8204;53.582;10.080;2023-02-02T06:07:39;100077.41;;;6.64;100.00
16194;BME280;8204;53.582;10.080;2023-02-02T06:10:09;100074.13;;;6.62;100.00
16194;BME280;8204;53.582;10.080;2023-02-02T06:12:38;100078.66;;;6.60;100.00
16194;BME280;8204;53.582;10.080;2023-02-02T06:15:08;100088.25;;;6.60;100.00
16194;BME280;8204;53.582;10.080;2023-02-02T06:17:37;100087.16;;;6.62;100.00
16194;BME280;8204;53.582;10.080;2023-02-02T06:20:09;100107.97;;;6.62;100.00
16194;BME280;8204;53.582;10.080;2023-02-02T06:22:38;100101.47;;;6.66;100.00
16194;BME280;8204;53.582;10.080;2023-02-02T06:25:09;100111.53;;;6.61;100.00
16194;BME280;8204;53.582;10.080;2023-02-02T06:27:37;100120.97;;;6.62;100.00
16194;BME280;8204;53.582;10.080;2023-02-02T06:30:07;100142.09;;;6.59;100.00
16194;BME280;8204;53.582;10.080;2023-02-02T06:32:37;100140.69;;;6.65;100.00
16194;BME280;8204;53.582;10.080;2023-02-02T06:35:09;100144.63;;;6.69;100.00
16194;BME280;8204;53.582;10.080;2023-02-02T06:37:38;100145.44;;;6.69;100.00
16194;BME280;8204;53.582;10.080;2023-02-02T06:40:09;100153.72;;;6.82;100.00
16194;BME280;8204;53.582;10.080;2023-02-02T06:42:38;100171.63;;;6.85;100.00
16194;BME280;8204;53.582;10.080;2023-02-02T06:45:08;100179.31;;;6.87;100.00
16194;BME280;8204;53.582;10.080;2023-02-02T06:47:39;100202.00;;;6.94;100.00
16194;BME280;8204;53.582;10.080;2023-02-02T06:50:11;100191.06;;;6.91;100.00
16194;BME280;8204;53.582;10.080;2023-02-02T06:52:46;100193.22;;;6.95;100.00
16194;BME280;8204;53.582;10.080;2023-02-02T06:55:16;100203.03;;;7.01;100.00
16194;BME280;8204;53.582;10.080;2023-02-02T06:57:45;100205.31;;;7.04;100.00
16194;BME280;8204;53.582;10.080;2023-02-02T07:00:14;100206.91;;;6.97;100.00
16194;BME280;8204;53.582;10.080;2023-02-02T07:02:44;100217.78;;;6.93;100.00
16194;BME280;8204;53.582;10.080;2023-02-02T07:05:16;100218.94;;;6.98;100.00
16194;BME280;8204;53.582;10.080;2023-02-02T07:07:46;100255.47;;;6.89;100.00
16194;BME280;8204;53.582;10.080;2023-02-02T07:10:15;100269.59;;;6.86;100.00
16194;BME280;8204;53.582;10.080;2023-02-02T07:12:45;100279.91;;;6.88;100.00
16194;BME280;8204;53.582;10.080;2023-02-02T07:15:14;100283.31;;;6.88;100.00
16194;BME280;8204;53.582;10.080;2023-02-02T07:17:43;100280.41;;;6.91;100.00
16194;BME280;8204;53.582;10.080;2023-02-02T07:20:15;100308.38;;;6.89;100.00
16194;BME280;8204;53.582;10.080;2023-02-02T07:22:44;100316.72;;;6.93;100.00
16194;BME280;8204;53.582;10.080;2023-02-02T07:25:13;100339.09;;;6.86;100.00
16194;BME280;8204;53.582;10.080;2023-02-02T07:27:42;100348.03;;;6.83;100.00
16194;BME280;8204;53.582;10.080;2023-02-02T07:30:12;100355.97;;;6.82;100.00
16194;BME280;8204;53.582;10.080;2023-02-02T07:32:45;100382.84;;;6.82;100.00
16194;BME280;8204;53.582;10.080;2023-02-02T07:35:17;100412.31;;;6.73;100.00
16194;BME280;8204;53.582;10.080;2023-02-02T07:37:50;100408.75;;;6.74;100.00
16194;BME280;8204;53.582;10.080;2023-02-02T07:40:19;100394.78;;;6.75;100.00
16194;BME280;8204;53.582;10.080;2023-02-02T07:42:48;100409.56;;;6.75;100.00
16194;BME280;8204;53.582;10.080;2023-02-02T07:45:17;100401.06;;;6.82;100.00
16194;BME280;8204;53.582;10.080;2023-02-02T07:47:46;100417.38;;;6.84;100.00
16194;BME280;8204;53.582;10.080;2023-02-02T07:50:17;100423.63;;;6.91;100.00
16194;BME280;8204;53.582;10.080;2023-02-02T07:52:47;100433.09;;;6.92;100.00
16194;BME280;8204;53.582;10.080;2023-02-02T07:55:16;100424.09;;;6.87;100.00
16194;BME280;8204;53.582;10.080;2023-02-02T07:57:45;100410.50;;;6.93;100.00
16194;BME280;8204;53.582;10.080;2023-02-02T08:00:15;100402.91;;;6.99;100.00
16194;BME280;8204;53.582;10.080;2023-02-02T08:02:44;100418.41;;;7.01;100.00
16194;BME280;8204;53.582;10.080;2023-02-02T08:05:18;100399.66;;;6.97;100.00
16194;BME280;8204;53.582;10.080;2023-02-02T08:07:47;100421.56;;;6.95;100.00
16194;BME280;8204;53.582;10.080;2023-02-02T08:10:16;100436.38;;;6.94;100.00
16194;BME280;8204;53.582;10.080;2023-02-02T08:12:45;100437.63;;;6.90;100.00
16194;BME280;8204;53.582;10.080;2023-02-02T08:15:14;100443.22;;;6.95;100.00
16194;BME280;8204;53.582;10.080;2023-02-02T08:17:44;100451.28;;;7.02;100.00
16194;BME280;8204;53.582;10.080;2023-02-02T08:20:18;100463.91;;;6.97;100.00
16194;BME280;8204;53.582;10.080;2023-02-02T08:22:46;100465.56;;;6.98;100.00
16194;BME280;8204;53.582;10.080;2023-02-02T08:25:15;100469.97;;;6.97;100.00
16194;BME280;8204;53.582;10.080;2023-02-02T08:27:44;100478.59;;;6.98;100.00
16194;BME280;8204;53.582;10.080;2023-02-02T08:30:13;100479.69;;;6.95;100.00
16194;BME280;8204;53.582;10.080;2023-02-02T08:32:47;100484.91;;;6.95;100.00
16194;BME280;8204;53.582;10.080;2023-02-02T08:35:19;100494.75;;;7.01;100.00
16194;BME280;8204;53.582;10.080;2023-02-02T08:37:48;100487.19;;;7.08;100.00
16194;BME280;8204;53.582;10.080;2023-02-02T08:40:17;100503.81;;;6.97;100.00
16194;BME280;8204;53.582;10.080;2023-02-02T08:42:46;100493.09;;;7.00;100.00
16194;BME280;8204;53.582;10.080;2023-02-02T08:45:20;100504.59;;;7.07;100.00
16194;BME280;8204;53.582;10.080;2023-02-02T08:47:48;100509.53;;;7.10;100.00
16194;BME280;8204;53.582;10.080;2023-02-02T08:50:20;100509.09;;;7.15;100.00
16194;BME280;8204;53.582;10.080;2023-02-02T08:52:49;100520.19;;;7.17;100.00
16194;BME280;8204;53.582;10.080;2023-02-02T08:55:18;100525.56;;;7.15;100.00
16194;BME280;8204;53.582;10.080;2023-02-02T08:57:47;100557.25;;;7.11;100.00
16194;BME280;8204;53.582;10.080;2023-02-02T09:00:17;100568.22;;;7.14;100.00
16194;BME280;8204;53.582;10.080;2023-02-02T09:02:49;100557.22;;;7.20;100.00
16194;BME280;8204;53.582;10.080;2023-02-02T09:05:20;100560.34;;;7.23;100.00
16194;BME280;8204;53.582;10.080;2023-02-02T09:07:49;100586.00;;;7.28;100.00
16194;BME280;8204;53.582;10.080;2023-02-02T09:10:18;100597.22;;;7.28;100.00
16194;BME280;8204;53.582;10.080;2023-02-02T09:12:47;100601.22;;;7.32;100.00
16194;BME280;8204;53.582;10.080;2023-02-02T09:15:15;100595.44;;;7.38;100.00
16194;BME280;8204;53.582;10.080;2023-02-02T09:17:44;100605.44;;;7.43;100.00
16194;BME280;8204;53.582;10.080;2023-02-02T09:20:13;100621.09;;;7.43;100.00
16194;BME280;8204;53.582;10.080;2023-02-02T09:22:45;100625.03;;;7.47;100.00
16194;BME280;8204;53.582;10.080;2023-02-02T09:25:14;100641.38;;;7.49;100.00
16194;BME280;8204;53.582;10.080;2023-02-02T09:27:43;100675.09;;;7.50;100.00
16194;BME280;8204;53.582;10.080;2023-02-02T09:30:13;100682.78;;;7.52;100.00
16194;BME280;8204;53.582;10.080;2023-02-02T09:32:42;100694.16;;;7.51;100.00
16194;BME280;8204;53.582;10.080;2023-02-02T09:35:10;100709.72;;;7.43;100.00
16194;BME280;8204;53.582;10.080;2023-02-02T09:37:39;100723.69;;;7.51;100.00
16194;BME280;8204;53.582;10.080;2023-02-02T09:40:16;100715.44;;;7.56;100.00
16194;BME280;8204;53.582;10.080;2023-02-02T09:42:57;100735.06;;;7.60;100.00
16194;BME280;8204;53.582;10.080;2023-02-02T09:45:35;100755.91;;;7.60;100.00
16194;BME280;8204;53.582;10.080;2023-02-02T09:48:16;100763.97;;;7.66;100.00
16194;BME280;8204;53.582;10.080;2023-02-02T09:50:50;100783.22;;;7.75;100.00
16194;BME280;8204;53.582;10.080;2023-02-02T09:53:28;100776.03;;;7.77;100.00
16194;BME280;8204;53.582;10.080;2023-02-02T09:56:05;100807.34;;;7.77;100.00
16194;BME280;8204;53.582;10.080;2023-02-02T09:58:38;100802.44;;;7.74;100.00
16194;BME280;8204;53.582;10.080;2023-02-02T10:01:11;100798.31;;;7.81;100.00
16194;BME280;8204;53.582;10.080;2023-02-02T10:03:44;100806.38;;;7.87;100.00
16194;BME280;8204;53.582;10.080;2023-02-02T10:06:27;100837.41;;;7.81;100.00
16194;BME280;8204;53.582;10.080;2023-02-02T10:09:02;100844.41;;;7.80;100.00
16194;BME280;8204;53.582;10.080;2023-02-02T10:11:42;100856.78;;;7.88;100.00
16194;BME280;8204;53.582;10.080;2023-02-02T10:14:17;100881.47;;;7.84;100.00
16194;BME280;8204;53.582;10.080;2023-02-02T10:16:48;100891.34;;;7.90;100.00
16194;BME280;8204;53.582;10.080;2023-02-02T10:19:22;100908.53;;;7.92;100.00
16194;BME280;8204;53.582;10.080;2023-02-02T10:22:00;100934.75;;;7.91;100.00
16194;BME280;8204;53.582;10.080;2023-02-02T10:24:30;100979.50;;;7.86;100.00
16194;BME280;8204;53.582;10.080;2023-02-02T10:27:04;101001.22;;;7.87;100.00
16194;BME280;8204;53.582;10.080;2023-02-02T10:29:45;100987.63;;;7.93;100.00
16194;BME280;8204;53.582;10.080;2023-02-02T10:32:23;100976.78;;;7.97;100.00
16194;BME280;8204;53.582;10.080;2023-02-02T10:35:02;100975.94;;;8.06;100.00
16194;BME280;8204;53.582;10.080;2023-02-02T10:37:39;100985.47;;;8.16;100.00
16194;BME280;8204;53.582;10.080;2023-02-02T10:40:16;101012.13;;;8.20;100.00
16194;BME280;8204;53.582;10.080;2023-02-02T10:43:03;101042.78;;;8.27;100.00
16194;BME280;8204;53.582;10.080;2023-02-02T10:45:49;101073.81;;;8.30;100.00
16194;BME280;8204;53.582;10.080;2023-02-02T10:48:21;101127.94;;;8.28;100.00
16194;BME280;8204;53.582;10.080;2023-02-02T10:50:53;101133.59;;;8.33;100.00
16194;BME280;8204;53.582;10.080;2023-02-02T10:53:25;101147.22;;;8.37;100.00
16194;BME280;8204;53.582;10.080;2023-02-02T10:55:58;101176.34;;;8.42;100.00
16194;BME280;8204;53.582;10.080;2023-02-02T10:58:37;101200.09;;;8.39;100.00
16194;BME280;8204;53.582;10.080;2023-02-02T11:01:08;101192.84;;;8.52;100.00
16194;BME280;8204;53.582;10.080;2023-02-02T11:03:37;101192.19;;;8.59;100.00
16194;BME280;8204;53.582;10.080;2023-02-02T11:06:07;101169.78;;;8.66;100.00
16194;BME280;8204;53.582;10.080;2023-02-02T11:08:51;101199.75;;;8.71;100.00
16194;BME280;8204;53.582;10.080;2023-02-02T11:11:24;101223.41;;;8.70;100.00
16194;BME280;8204;53.582;10.080;2023-02-02T11:14:00;101222.59;;;8.70;100.00
16194;BME280;8204;53.582;10.080;2023-02-02T11:16:31;101227.94;;;8.77;100.00
16194;BME280;8204;53.582;10.080;2023-02-02T11:19:00;101230.00;;;8.83;100.00
16194;BME280;8204;53.582;10.080;2023-02-02T11:21:33;101220.81;;;8.89;100.00
16194;BME280;8204;53.582;10.080;2023-02-02T11:24:05;101240.22;;;8.86;100.00
16194;BME280;8204;53.582;10.080;2023-02-02T11:26:44;101245.69;;;8.83;100.00
16194;BME280;8204;53.582;10.080;2023-02-02T11:29:20;101266.91;;;8.90;100.00
16194;BME280;8204;53.582;10.080;2023-02-02T11:31:51;101274.59;;;8.82;100.00
16194;BME280;8204;53.582;10.080;2023-02-02T11:34:22;101277.03;;;8.83;100.00
16194;BME280;8204;53.582;10.080;2023-02-02T11:37:11;101291.78;;;8.84;100.00
16194;BME280;8204;53.582;10.080;2023-02-02T11:39:41;101332.47;;;8.87;100.00
16194;BME280;8204;53.582;10.080;2023-02-02T11:42:16;101326.06;;;8.91;100.00
16194;BME280;8204;53.582;10.080;2023-02-02T11:44:50;101310.50;;;8.89;100.00
16194;BME280;8204;53.582;10.080;2023-02-02T11:47:24;101310.94;;;8.94;100.00
16194;BME280;8204;53.582;10.080;2023-02-02T11:49:59;101313.41;;;8.96;100.00
16194;BME280;8204;53.582;10.080;2023-02-02T11:52:30;101296.06;;;9.04;100.00
16194;BME280;8204;53.582;10.080;2023-02-02T11:55:02;101302.69;;;9.08;100.00
16194;BME280;8204;53.582;10.080;2023-02-02T11:57:36;101303.25;;;9.12;100.00
16194;BME280;8204;53.582;10.080;2023-02-02T12:00:17;101299.97;;;9.19;100.00
16194;BME280;8204;53.582;10.080;2023-02-02T12:02:51;101326.91;;;9.20;100.00
16194;BME280;8204;53.582;10.080;2023-02-02T12:05:35;101325.28;;;9.19;100.00
16194;BME280;8204;53.582;10.080;2023-02-02T12:08:04;101321.97;;;9.17;100.00
16194;BME280;8204;53.582;10.080;2023-02-02T12:10:41;101344.94;;;9.13;100.00
16194;BME280;8204;53.582;10.080;2023-02-02T12:13:17;101350.19;;;9.13;100.00
16194;BME280;8204;53.582;10.080;2023-02-02T12:16:00;101341.50;;;9.13;100.00
16194;BME280;8204;53.582;10.080;2023-02-02T12:18:42;101343.44;;;9.11;100.00
16194;BME280;8204;53.582;10.080;2023-02-02T12:21:19;101369.75;;;9.19;100.00
16194;BME280;8204;53.582;10.080;2023-02-02T12:24:11;101377.72;;;9.27;100.00
16194;BME280;8204;53.582;10.080;2023-02-02T12:26:47;101381.84;;;9.29;100.00
16194;BME280;8204;53.582;10.080;2023-02-02T12:32:26;101379.94;;;9.41;100.00
16194;BME280;8204;53.582;10.080;2023-02-02T12:35:10;101384.50;;;9.48;100.00
16194;BME280;8204;53.582;10.080;2023-02-02T12:37:53;101391.38;;;9.49;100.00
16194;BME280;8204;53.582;10.080;2023-02-02T12:40:41;101384.53;;;9.57;100.00
16194;BME280;8204;53.582;10.080;2023-02-02T12:43:22;101362.75;;;9.66;100.00
16194;BME280;8204;53.582;10.080;2023-02-02T12:46:17;101374.31;;;9.73;100.00
16194;BME280;8204;53.582;10.080;2023-02-02T12:49:05;101395.53;;;9.70;100.00
16194;BME280;8204;53.582;10.080;2023-02-02T12:51:45;101408.75;;;9.69;100.00
16194;BME280;8204;53.582;10.080;2023-02-02T12:54:31;101436.00;;;9.66;100.00
16194;BME280;8204;53.582;10.080;2023-02-02T12:57:13;101443.59;;;9.69;100.00
16194;BME280;8204;53.582;10.080;2023-02-02T13:00:10;101462.75;;;9.79;100.00
16194;BME280;8204;53.582;10.080;2023-02-02T13:02:58;101460.44;;;9.86;100.00
16194;BME280;8204;53.582;10.080;2023-02-02T13:05:42;101481.34;;;9.76;100.00
16194;BME280;8204;53.582;10.080;2023-02-02T13:08:20;101504.75;;;9.68;100.00
16194;BME280;8204;53.582;10.080;2023-02-02T13:10:56;101497.16;;;9.65;100.00
16194;BME280;8204;53.582;10.080;2023-02-02T13:13:30;101502.09;;;9.59;100.00
16194;BME280;8204;53.582;10.080;2023-02-02T13:16:05;101497.44;;;9.62;100.00
16194;BME280;8204;53.582;10.080;2023-02-02T13:18:39;101489.31;;;9.65;100.00
16194;BME280;8204;53.582;10.080;2023-02-02T13:21:14;101498.75;;;9.47;100.00
16194;BME280;8204;53.582;10.080;2023-02-02T13:23:49;101485.81;;;9.46;100.00
16194;BME280;8204;53.582;10.080;2023-02-02T13:26:19;101480.44;;;9.47;100.00
16194;BME280;8204;53.582;10.080;2023-02-02T13:28:51;101487.75;;;9.44;100.00
16194;BME280;8204;53.582;10.080;2023-02-02T13:31:26;101470.94;;;9.46;100.00